Airfield :
LOGIN :

Register | Disclaimer

   EN    FR    IT 

 










Legend :    VFR   Marginal VFR   IFR   Intensive IFR   Very Intensive IFR
Visi :
Ceiling :
>= 8 km
>= 3000ft
5 to 8 km
1000 to 3000 ft
1500m to 5 km
500 to 1000 ft
800 to 1500m
200 to 500 ft
< 800m
< 200 ft
Symbols :   Thunderstorms  Fog  Heavy snow  Heavy precipitations  Wind > 20 kt
SIGMETs :     Misc.  Thunderstorms  Icing  Turbulence  Mountain Waves  Volcanic Ashes






- Airport Elevation : 297 ft
- IATA code : UIP


LFRQ - Quimper Pluguffan

CURRENT METAR :
  • 282300Z AUTO 23008KT 200V260 9999 BKN011 OVC028 11/10 Q1017

EXPIRED METARs :
  • 282230Z AUTO 23008KT 200V260 9999 SCT007 OVC028 11/10 Q1017
  • 282200Z AUTO 23008KT 200V260 9999 FEW008 BKN026 OVC037 11/10 Q1018 TEMPO 2000 -RADZ BR BKN004
  • 282130Z AUTO 24009KT 6000 -RA BKN006 OVC025 11/10 Q1018 TEMPO 2000 -RADZ BR BKN004
  • 282100Z AUTO 24009KT 6000 2800 -RA OVC005 11/11 Q1018 TEMPO 2000 -RADZ BR
  • 282030Z AUTO 25011KT 220V290 9999 4300 OVC005 11/11 Q1019 TEMPO 2000 -RADZ BR
  • 282000Z AUTO 24009KT 210V280 4000 -DZ BR OVC004 11/11 Q1019 TEMPO 2000 -RADZ BR VV///
  • 281930Z AUTO 24009KT 220V280 4300 -DZ BR OVC004 11/11 Q1019 TEMPO 2000 -RADZ BR VV///
  • 281900Z AUTO 25010KT 4800 -DZ BR OVC004 11/11 Q1019 TEMPO 0800 FG VV///
  • 281830Z AUTO 25010KT 220V280 5000 -DZ BR OVC004 12/11 Q1019 TEMPO 1200 RADZ VV///

TAF AMD TAF LFRQ
Valid from the 28 at 18:00 until the 29 at 18:00 UTC


281823Z 2818/2918 24012KT 9999 BKN011
TEMPO 2818/2908 2000 -RADZ BR BKN004
PROB40
TEMPO 2818/2821 0800 FG VV///
PROB40
TEMPO 2904/2908 1200 RADZ BKN002
BECMG 2908/2910 30010KT SCT012
TEMPO 2910/2915 30015G30KT 4000 SHRA BKN012TCU
TEMPO 2915/2918 30020G40KT 3000 SHRA BKN015CB



MET'MAP, your aeronautical weather chart ! - Copyright ORBIFLY December 2007 - Disclaimer

ORBIFLY MET'MAP TEAM :

Programming & Development : Alexandra Zaïnal
Original concept : Baudouin d'Aumeries
Technical & hardware support : Manuel Goepfert
Assistance : Marc-Olivier Méhu




SOURCES & CREDITS :

   NOAA